Time;durP1;ratioP1;P1;durP2;ratioP2;P2;SDS_P1;SDS_P2;PMS_P1;PMS_P2;Temp;Humidity;BMP_temperature;BMP_pressure;BME280_temperature;BME280_humidity;BME280_pressure;Samples;Min_cycle;Max_cycle;Signal;HPM_P1;HPM_P2
2020/12/11 00:02:01;;;;;;;34.83;15.73;;;0.80;99.90;;;;;;5096787;28;20176;-59
2020/12/11 00:04:27;;;;;;;35.35;15.10;;;0.80;99.90;;;;;;5096537;28;20169;-59
2020/12/11 00:06:53;;;;;;;38.70;15.75;;;0.90;99.90;;;;;;5096535;28;20186;-59
2020/12/11 00:09:18;;;;;;;40.17;16.35;;;0.90;99.90;;;;;;5095462;28;20172;-59
2020/12/11 00:11:44;;;;;;;41.65;15.70;;;0.90;99.90;;;;;;5096158;28;20167;-59
2020/12/11 00:14:09;;;;;;;38.60;16.10;;;0.90;99.90;;;;;;5096601;28;20556;-59
2020/12/11 00:16:35;;;;;;;39.83;15.38;;;0.80;99.90;;;;;;5096419;28;20167;-60
2020/12/11 00:19:01;;;;;;;44.15;16.15;;;0.80;99.90;;;;;;5096270;28;20186;-59
2020/12/11 00:21:26;;;;;;;36.88;15.55;;;0.80;99.90;;;;;;5096289;28;20502;-59
2020/12/11 00:23:52;;;;;;;40.92;16.50;;;0.80;99.90;;;;;;5096526;28;20673;-59
2020/12/11 00:26:17;;;;;;;38.50;15.70;;;0.70;99.90;;;;;;5096474;28;20168;-59
2020/12/11 00:28:43;;;;;;;37.50;15.43;;;0.80;99.90;;;;;;5096534;28;20576;-59
2020/12/11 00:31:08;;;;;;;45.00;16.80;;;0.80;99.90;;;;;;5095278;28;20183;-59
2020/12/11 00:33:34;;;;;;;43.75;16.02;;;0.80;99.90;;;;;;5096482;28;20277;-60
2020/12/11 00:36:00;;;;;;;40.50;16.20;;;0.80;99.90;;;;;;5096008;28;20206;-59
2020/12/11 00:38:29;;;;;;;40.53;15.65;;;0.80;99.90;;;;;;5096026;28;20214;-59
2020/12/11 00:40:55;;;;;;;39.17;16.02;;;0.80;99.90;;;;;;5096228;28;20175;-59
2020/12/11 00:43:21;;;;;;;41.58;16.55;;;0.80;99.90;;;;;;5095925;28;20558;-59
2020/12/11 00:45:46;;;;;;;42.53;17.25;;;0.80;99.90;;;;;;5077275;28;538650;-59
2020/12/11 00:48:12;;;;;;;40.03;15.75;;;0.70;99.90;;;;;;5096959;28;20622;-59
2020/12/11 00:50:37;;;;;;;43.38;15.95;;;0.70;99.90;;;;;;5096785;28;20171;-59
2020/12/11 00:53:03;;;;;;;41.63;17.08;;;0.70;99.90;;;;;;5097668;28;20166;-59
2020/12/11 00:55:28;;;;;;;40.30;15.50;;;0.70;99.90;;;;;;5096720;28;20164;-59
2020/12/11 00:57:54;;;;;;;42.30;16.13;;;0.70;99.90;;;;;;5096778;28;20599;-59
2020/12/11 01:00:19;;;;;;;40.05;15.45;;;0.70;99.90;;;;;;5096790;28;20174;-59
2020/12/11 01:02:45;;;;;;;42.70;15.93;;;0.80;99.90;;;;;;5096577;28;20191;-59
2020/12/11 01:05:10;;;;;;;42.38;16.38;;;0.80;99.90;;;;;;5096762;28;20228;-59
2020/12/11 01:07:36;;;;;;;40.60;16.35;;;0.70;99.90;;;;;;5096876;28;20499;-60
2020/12/11 01:10:02;;;;;;;41.95;16.85;;;0.70;99.90;;;;;;5096571;28;20179;-59
2020/12/11 01:12:27;;;;;;;48.70;17.75;;;0.70;99.90;;;;;;5096446;28;20246;-59
2020/12/11 01:14:53;;;;;;;47.63;17.40;;;0.80;99.90;;;;;;5096500;28;20256;-59
2020/12/11 01:17:19;;;;;;;45.67;16.75;;;0.80;99.90;;;;;;5096421;28;20551;-58
2020/12/11 01:19:44;;;;;;;42.60;15.43;;;0.80;99.90;;;;;;5096170;28;20178;-61
2020/12/11 01:22:11;;;;;;;45.17;16.23;;;0.80;99.90;;;;;;5096202;28;20167;-58
2020/12/11 01:24:36;;;;;;;43.28;16.52;;;0.80;99.90;;;;;;5095435;28;20614;-60
2020/12/11 01:27:01;;;;;;;49.47;16.83;;;0.80;99.90;;;;;;5096092;28;20167;-58
2020/12/11 01:29:27;;;;;;;45.28;16.75;;;0.80;99.90;;;;;;5096107;28;20155;-59
2020/12/11 01:31:56;;;;;;;43.40;15.70;;;0.90;99.90;;;;;;5095946;28;20167;-59
2020/12/11 01:34:22;;;;;;;50.90;18.65;;;0.90;99.90;;;;;;5095998;28;20250;-59
2020/12/11 01:36:48;;;;;;;44.78;17.40;;;0.80;99.90;;;;;;5095911;28;20178;-59
2020/12/11 01:39:13;;;;;;;46.45;16.98;;;0.90;99.90;;;;;;5096126;28;20249;-59
2020/12/11 01:41:39;;;;;;;42.78;15.75;;;0.90;99.90;;;;;;5095737;28;20203;-59
2020/12/11 01:44:08;;;;;;;49.60;16.77;;;0.90;99.90;;;;;;5096006;28;20192;-61
2020/12/11 01:46:40;;;;;;;53.83;18.50;;;0.80;99.90;;;;;;5095618;28;20221;-59
2020/12/11 01:49:06;;;;;;;45.13;17.52;;;0.80;99.90;;;;;;5096144;28;20155;-59
2020/12/11 01:51:34;;;;;;;44.95;16.33;;;0.80;99.90;;;;;;5095706;28;20258;-60
2020/12/11 01:53:59;;;;;;;42.90;16.25;;;0.80;99.90;;;;;;5095824;28;20164;-59
2020/12/11 01:56:26;;;;;;;47.10;16.27;;;0.80;99.90;;;;;;5095583;28;20168;-59
2020/12/11 01:59:00;;;;;;;43.70;16.23;;;0.80;99.90;;;;;;5095651;28;20172;-59
2020/12/11 02:01:25;;;;;;;45.78;17.27;;;0.80;99.90;;;;;;5095540;28;20151;-59
2020/12/11 02:03:51;;;;;;;45.67;16.33;;;0.80;99.90;;;;;;5095571;28;20202;-60
2020/12/11 02:06:16;;;;;;;48.63;17.70;;;0.80;99.90;;;;;;5095491;28;20227;-59
2020/12/11 02:08:42;;;;;;;49.35;16.40;;;0.80;99.90;;;;;;5095523;28;20187;-59
2020/12/11 02:11:18;;;;;;;45.88;16.63;;;0.80;99.90;;;;;;5095663;28;20159;-58
2020/12/11 02:13:44;;;;;;;46.17;15.48;;;0.80;99.90;;;;;;5095489;28;20163;-59
2020/12/11 02:16:09;;;;;;;46.25;16.77;;;0.80;99.90;;;;;;5094692;28;20178;-59
2020/12/11 02:18:35;;;;;;;46.85;16.67;;;0.80;99.90;;;;;;5095318;28;20167;-59
2020/12/11 02:21:01;;;;;;;46.58;16.23;;;0.80;99.90;;;;;;5095082;28;20250;-59
2020/12/11 02:23:26;;;;;;;45.58;16.45;;;0.80;99.90;;;;;;5095432;28;20194;-59
2020/12/11 02:25:52;;;;;;;46.60;15.98;;;0.80;99.90;;;;;;5095123;28;20159;-59
2020/12/11 02:28:17;;;;;;;45.47;16.20;;;0.80;99.90;;;;;;5095305;28;20203;-60
2020/12/11 02:30:43;;;;;;;38.60;15.85;;;0.80;99.90;;;;;;5095348;28;20164;-60
2020/12/11 02:33:08;;;;;;;48.47;16.20;;;0.90;99.90;;;;;;5095211;28;20171;-60
2020/12/11 02:35:34;;;;;;;46.60;16.77;;;0.80;99.90;;;;;;5095029;28;20174;-59
2020/12/11 02:37:59;;;;;;;50.92;17.48;;;0.80;99.90;;;;;;5095451;28;20194;-59
2020/12/11 02:40:25;;;;;;;49.35;16.58;;;0.80;99.90;;;;;;5095013;28;20187;-57
2020/12/11 02:42:51;;;;;;;46.63;17.52;;;0.80;99.90;;;;;;5095152;28;20321;-59
2020/12/11 02:45:16;;;;;;;48.70;17.55;;;0.80;99.90;;;;;;5094903;28;20194;-59
2020/12/11 02:47:42;;;;;;;47.90;15.60;;;0.80;99.90;;;;;;5101191;28;20178;-59
2020/12/11 02:50:07;;;;;;;48.70;17.15;;;0.80;99.90;;;;;;5105498;28;20167;-59
2020/12/11 02:52:33;;;;;;;41.35;15.80;;;0.80;99.90;;;;;;5109951;28;20168;-59
2020/12/11 02:54:59;;;;;;;50.83;16.77;;;0.80;99.90;;;;;;5097481;28;20172;-59
2020/12/11 02:57:24;;;;;;;43.20;17.17;;;0.80;99.90;;;;;;5094955;28;20626;-59
2020/12/11 02:59:50;;;;;;;44.72;16.10;;;0.80;99.90;;;;;;5094766;28;20163;-59
2020/12/11 03:02:15;;;;;;;50.90;16.67;;;0.70;99.90;;;;;;5093829;28;20484;-59
2020/12/11 03:04:41;;;;;;;47.88;16.45;;;0.70;99.90;;;;;;5094675;28;20627;-59
2020/12/11 03:07:07;;;;;;;48.13;15.68;;;0.70;99.90;;;;;;5094687;28;20248;-59
2020/12/11 03:09:32;;;;;;;41.80;16.55;;;0.70;99.90;;;;;;5094574;28;20186;-59
2020/12/11 03:11:58;;;;;;;43.90;16.58;;;0.70;99.90;;;;;;5094699;28;20168;-59
2020/12/11 03:14:23;;;;;;;46.00;16.20;;;0.70;99.90;;;;;;5094619;28;20159;-59
2020/12/11 03:16:48;;;;;;;45.50;16.13;;;0.80;99.90;;;;;;5094440;28;20176;-59
2020/12/11 03:19:14;;;;;;;49.38;17.10;;;0.80;99.90;;;;;;5094876;28;20553;-59
2020/12/11 03:21:40;;;;;;;48.58;16.45;;;0.80;99.90;;;;;;5093438;28;20599;-59
2020/12/11 03:24:05;;;;;;;45.55;16.58;;;0.80;99.90;;;;;;5093472;28;20504;-59
2020/12/11 03:26:30;;;;;;;44.13;16.00;;;0.80;99.90;;;;;;5094436;28;20175;-59
2020/12/11 03:28:56;;;;;;;42.42;15.93;;;0.80;99.90;;;;;;5094734;28;20172;-59
2020/12/11 03:31:21;;;;;;;48.55;16.58;;;0.80;99.90;;;;;;5094668;28;20168;-60
2020/12/11 03:33:47;;;;;;;42.08;15.80;;;0.80;99.90;;;;;;5094419;28;20172;-59
2020/12/11 03:36:18;;;;;;;47.00;16.25;;;0.80;99.90;;;;;;5094353;28;20582;-59
2020/12/11 03:38:43;;;;;;;41.50;15.68;;;0.80;99.90;;;;;;5094498;28;20172;-58
2020/12/11 03:41:13;;;;;;;43.58;16.67;;;0.80;99.90;;;;;;5094305;28;20220;-59
2020/12/11 03:43:39;;;;;;;38.92;15.90;;;0.80;99.90;;;;;;5094877;28;20176;-59
2020/12/11 03:46:04;;;;;;;39.83;15.93;;;0.80;99.90;;;;;;5094592;28;20183;-59
2020/12/11 03:48:30;;;;;;;44.78;15.63;;;0.80;99.90;;;;;;5097994;28;20494;-59
2020/12/11 03:50:55;;;;;;;44.80;15.93;;;0.80;99.90;;;;;;5098052;28;20171;-59
2020/12/11 03:53:21;;;;;;;44.75;16.10;;;0.80;99.90;;;;;;5097980;28;20187;-59
2020/12/11 03:55:46;;;;;;;43.88;16.13;;;0.80;99.90;;;;;;5098325;28;20497;-59
2020/12/11 03:58:12;;;;;;;45.28;16.55;;;0.80;99.90;;;;;;5098050;28;20164;-60
2020/12/11 04:00:37;;;;;;;38.05;14.70;;;0.70;99.90;;;;;;5098535;28;20229;-60
2020/12/11 04:03:03;;;;;;;49.95;16.10;;;0.70;99.90;;;;;;5097879;28;20269;-60
2020/12/11 04:05:28;;;;;;;36.75;14.60;;;0.70;99.90;;;;;;5097810;28;20545;-59
2020/12/11 04:07:54;;;;;;;45.20;16.08;;;0.60;99.90;;;;;;5097881;28;20174;-59
2020/12/11 04:10:19;;;;;;;48.33;15.80;;;0.60;99.90;;;;;;5097649;28;20544;-59
2020/12/11 04:12:45;;;;;;;43.53;15.65;;;0.60;99.90;;;;;;5097750;28;20203;-59
2020/12/11 04:15:10;;;;;;;40.75;14.52;;;0.60;99.90;;;;;;5097571;28;20171;-59
2020/12/11 04:17:36;;;;;;;41.00;14.80;;;0.60;99.90;;;;;;5097399;28;20510;-59
2020/12/11 04:20:01;;;;;;;44.55;15.68;;;0.60;99.90;;;;;;5097686;28;20607;-59
2020/12/11 04:22:27;;;;;;;40.53;14.93;;;0.60;99.90;;;;;;5097258;28;20199;-59
2020/12/11 04:24:52;;;;;;;42.70;15.05;;;0.60;99.90;;;;;;5098215;28;20167;-60
2020/12/11 04:27:18;;;;;;;45.85;16.23;;;0.60;99.90;;;;;;5097526;28;20195;-59
2020/12/11 04:29:43;;;;;;;39.47;14.25;;;0.60;99.90;;;;;;5097247;28;20163;-60
2020/12/11 04:32:09;;;;;;;37.30;14.23;;;0.60;99.90;;;;;;5097461;28;20163;-59
2020/12/11 04:34:34;;;;;;;43.22;14.65;;;0.70;99.90;;;;;;5097796;28;20191;-59
2020/12/11 04:37:00;;;;;;;37.38;13.80;;;0.70;99.90;;;;;;5097475;28;20177;-59
2020/12/11 04:39:25;;;;;;;37.63;14.27;;;0.70;99.90;;;;;;5096257;28;20163;-59
2020/12/11 04:41:53;;;;;;;38.55;14.80;;;0.70;99.90;;;;;;5097307;28;20559;-59
2020/12/11 04:44:19;;;;;;;33.83;13.73;;;0.70;99.90;;;;;;5097178;28;20611;-59
2020/12/11 04:46:44;;;;;;;37.83;13.95;;;0.60;99.90;;;;;;5097083;28;20198;-58
2020/12/11 04:49:10;;;;;;;35.95;14.25;;;0.60;99.90;;;;;;5096234;28;20595;-58
2020/12/11 04:51:35;;;;;;;37.90;14.07;;;0.60;99.90;;;;;;5097486;28;20588;-59
2020/12/11 04:54:03;;;;;;;34.67;14.00;;;0.60;99.90;;;;;;5096733;28;20619;-59
2020/12/11 04:56:30;;;;;;;39.50;15.32;;;0.60;99.90;;;;;;5096687;28;20587;-59
2020/12/11 04:58:56;;;;;;;37.92;14.52;;;0.60;99.90;;;;;;5096654;28;20206;-59
2020/12/11 05:01:32;;;;;;;37.30;14.50;;;0.60;99.90;;;;;;5096598;28;20229;-59
2020/12/11 05:03:59;;;;;;;33.92;14.00;;;0.50;99.90;;;;;;5096660;28;20279;-59
2020/12/11 05:06:25;;;;;;;32.90;14.07;;;0.50;99.90;;;;;;5096536;28;20258;-59
2020/12/11 05:09:11;;;;;;;37.42;13.98;;;0.50;99.90;;;;;;5096437;28;20164;-59
2020/12/11 05:11:37;;;;;;;36.65;13.68;;;0.60;99.90;;;;;;5096660;28;20250;-58
2020/12/11 05:14:02;;;;;;;32.78;13.00;;;0.60;99.90;;;;;;5096369;28;20607;-59
2020/12/11 05:16:28;;;;;;;31.88;12.80;;;0.50;99.90;;;;;;5096416;28;20652;-59
2020/12/11 05:19:04;;;;;;;35.10;13.93;;;0.50;99.90;;;;;;5095490;28;20614;-59
2020/12/11 05:21:31;;;;;;;36.78;13.25;;;0.40;99.90;;;;;;5096500;28;20295;-59
2020/12/11 05:24:04;;;;;;;39.08;13.82;;;0.40;99.90;;;;;;5096102;28;20627;-59
2020/12/11 05:26:31;;;;;;;32.38;13.32;;;0.40;99.90;;;;;;5096414;28;20172;-59
2020/12/11 05:28:58;;;;;;;32.15;13.48;;;0.30;99.90;;;;;;5096281;28;20168;-60
2020/12/11 05:31:23;;;;;;;36.83;15.32;;;0.30;99.90;;;;;;5096450;28;20254;-59
2020/12/11 05:34:14;;;;;;;39.47;15.15;;;0.30;99.90;;;;;;5096351;28;20191;-59
2020/12/11 05:36:53;;;;;;;35.28;13.80;;;0.30;99.90;;;;;;5096428;28;20152;-59
2020/12/11 05:39:24;;;;;;;38.75;13.60;;;0.30;99.90;;;;;;5096283;28;20178;-59
2020/12/11 05:41:50;;;;;;;34.80;12.98;;;0.30;99.90;;;;;;5096106;28;20627;-59
2020/12/11 05:44:25;;;;;;;36.97;14.20;;;0.30;99.90;;;;;;5096201;28;20276;-59
2020/12/11 05:46:51;;;;;;;34.67;13.77;;;0.30;99.90;;;;;;5095822;28;20179;-59
2020/12/11 05:49:28;;;;;;;30.50;13.93;;;0.30;99.90;;;;;;5095962;28;20174;-58
2020/12/11 05:52:09;;;;;;;33.28;13.93;;;0.30;99.90;;;;;;5095936;28;20168;-59
2020/12/11 05:54:40;;;;;;;32.58;12.95;;;0.30;99.90;;;;;;5095836;28;20158;-59
2020/12/11 05:57:06;;;;;;;33.13;13.27;;;0.30;99.90;;;;;;5095894;28;20174;-59
2020/12/11 05:59:32;;;;;;;36.85;14.07;;;0.30;99.90;;;;;;5094786;28;20174;-59
2020/12/11 06:01:58;;;;;;;35.00;13.25;;;0.30;99.90;;;;;;5095730;28;20163;-59
2020/12/11 06:04:25;;;;;;;29.58;11.82;;;0.40;99.90;;;;;;5094778;28;20222;-59
2020/12/11 06:06:54;;;;;;;34.50;14.07;;;0.40;99.90;;;;;;5095463;28;20156;-59
2020/12/11 06:09:20;;;;;;;32.55;13.40;;;0.40;99.90;;;;;;5095028;28;20191;-59
2020/12/11 06:11:47;;;;;;;29.65;12.80;;;0.40;99.90;;;;;;5094584;28;20626;-59
2020/12/11 06:14:31;;;;;;;33.28;12.73;;;0.50;99.90;;;;;;5094477;28;20172;-59
2020/12/11 06:17:00;;;;;;;37.15;13.48;;;0.50;99.90;;;;;;5095263;28;20171;-59
2020/12/11 06:19:26;;;;;;;34.38;12.85;;;0.50;99.90;;;;;;5094587;28;20224;-59
2020/12/11 06:21:51;;;;;;;28.77;13.00;;;0.50;99.90;;;;;;5094348;28;20171;-59
2020/12/11 06:24:27;;;;;;;34.50;13.73;;;0.50;99.90;;;;;;5095166;28;20661;-59
2020/12/11 06:27:00;;;;;;;32.75;13.77;;;0.50;99.90;;;;;;5095171;28;20191;-59
2020/12/11 06:29:28;;;;;;;29.38;12.57;;;0.60;99.90;;;;;;5095171;28;20220;-59
2020/12/11 06:31:53;;;;;;;31.67;13.20;;;0.60;99.90;;;;;;5094857;28;20160;-59
2020/12/11 06:34:21;;;;;;;32.63;13.82;;;0.60;99.90;;;;;;5095037;28;20193;-58
2020/12/11 06:36:47;;;;;;;30.77;13.18;;;0.60;99.90;;;;;;5094053;28;20178;-59
2020/12/11 06:39:40;;;;;;;30.85;13.98;;;0.60;99.90;;;;;;5093945;28;20167;-59
2020/12/11 06:42:09;;;;;;;30.63;12.57;;;0.60;99.90;;;;;;5096113;28;20167;-59
2020/12/11 06:44:35;;;;;;;31.77;13.25;;;0.60;99.90;;;;;;5100604;28;20647;-59
2020/12/11 06:47:04;;;;;;;29.33;12.73;;;0.60;99.90;;;;;;5099162;28;20187;-59
2020/12/11 06:49:30;;;;;;;29.30;12.82;;;0.60;99.90;;;;;;5104019;28;20170;-59
2020/12/11 06:51:56;;;;;;;32.63;13.73;;;0.60;99.90;;;;;;5102280;28;20159;-60
2020/12/11 06:54:21;;;;;;;32.85;13.23;;;0.60;99.90;;;;;;5101041;28;20483;-59
2020/12/11 06:56:55;;;;;;;34.88;14.20;;;0.60;99.90;;;;;;5105081;28;20183;-59
2020/12/11 06:59:27;;;;;;;32.53;13.15;;;0.60;99.90;;;;;;5098440;28;20194;-59
2020/12/11 07:01:56;;;;;;;34.83;13.32;;;0.60;99.90;;;;;;5092894;28;20191;-59
2020/12/11 07:04:22;;;;;;;33.15;13.30;;;0.60;99.90;;;;;;5092378;28;20202;-59
2020/12/11 07:06:52;;;;;;;35.88;13.43;;;0.60;99.90;;;;;;5092300;28;20156;-59
2020/12/11 07:09:18;;;;;;;31.10;12.85;;;0.60;99.90;;;;;;5093552;28;20176;-59
2020/12/11 07:11:45;;;;;;;27.90;12.45;;;0.60;99.90;;;;;;5094969;28;20544;-59
2020/12/11 07:14:11;;;;;;;29.42;12.35;;;0.60;99.90;;;;;;5093334;28;20171;-59
2020/12/11 07:16:40;;;;;;;34.08;12.93;;;0.60;99.90;;;;;;5092278;28;20171;-59
2020/12/11 07:19:07;;;;;;;30.20;12.45;;;0.70;99.90;;;;;;5092183;28;20182;-59
2020/12/11 07:21:33;;;;;;;32.97;13.73;;;0.60;99.90;;;;;;5093405;28;20167;-58
2020/12/11 07:24:00;;;;;;;30.65;13.35;;;0.60;99.90;;;;;;5095970;28;20202;-59
2020/12/11 07:26:25;;;;;;;32.92;13.05;;;0.60;99.90;;;;;;5096439;28;20573;-59
2020/12/11 07:29:11;;;;;;;36.08;13.75;;;0.60;99.90;;;;;;5096730;28;20254;-59
2020/12/11 07:31:46;;;;;;;35.15;13.60;;;0.60;99.90;;;;;;5098331;28;20190;-59
2020/12/11 07:34:13;;;;;;;36.38;13.48;;;0.60;99.90;;;;;;5098087;28;20178;-59
2020/12/11 07:36:39;;;;;;;35.22;13.52;;;0.60;99.90;;;;;;5098559;28;20171;-59
2020/12/11 07:39:18;;;;;;;36.20;14.32;;;0.60;99.90;;;;;;5098529;28;20164;-59
2020/12/11 07:41:44;;;;;;;34.08;12.85;;;0.60;99.90;;;;;;5098289;28;20255;-59
2020/12/11 07:44:26;;;;;;;38.08;15.57;;;0.50;99.90;;;;;;5098037;28;20195;-59
2020/12/11 07:46:53;;;;;;;33.17;14.82;;;0.50;99.90;;;;;;5098077;28;20187;-59
2020/12/11 07:49:19;;;;;;;34.13;14.13;;;0.50;99.90;;;;;;5097039;28;20168;-59
2020/12/11 07:51:46;;;;;;;32.78;14.13;;;0.60;99.90;;;;;;5097838;28;20507;-59
2020/12/11 07:54:12;;;;;;;34.90;14.80;;;0.60;99.90;;;;;;5097690;28;20164;-59
2020/12/11 07:56:37;;;;;;;34.95;14.32;;;0.60;99.90;;;;;;5098075;28;20482;-59
2020/12/11 07:59:13;;;;;;;35.17;14.20;;;0.60;99.90;;;;;;5097717;28;20581;-59
2020/12/11 08:01:39;;;;;;;34.90;14.23;;;0.70;99.90;;;;;;5097715;28;20159;-59
2020/12/11 08:04:05;;;;;;;35.13;14.13;;;0.70;99.90;;;;;;5097549;28;20183;-59
2020/12/11 08:06:31;;;;;;;36.88;14.35;;;0.70;99.90;;;;;;5097669;28;20247;-59
2020/12/11 08:08:58;;;;;;;35.35;14.68;;;0.80;99.90;;;;;;5097678;28;20159;-59
2020/12/11 08:11:25;;;;;;;34.38;14.73;;;0.80;99.90;;;;;;5097493;28;20207;-59
2020/12/11 08:14:03;;;;;;;32.72;13.65;;;0.80;99.90;;;;;;5097763;28;20175;-59
2020/12/11 08:16:29;;;;;;;31.67;13.43;;;0.80;99.90;;;;;;5097621;28;20198;-59
2020/12/11 08:18:58;;;;;;;30.95;12.13;;;0.80;99.90;;;;;;5096534;28;20599;-60
2020/12/11 08:21:31;;;;;;;30.42;12.80;;;0.80;99.90;;;;;;5096541;28;20171;-59
2020/12/11 08:23:57;;;;;;;31.45;13.60;;;0.90;99.90;;;;;;5097541;28;20187;-59
2020/12/11 08:26:23;;;;;;;33.15;13.10;;;0.90;99.90;;;;;;5097329;28;20652;-59
2020/12/11 08:28:50;;;;;;;31.10;12.85;;;0.90;99.90;;;;;;5097763;28;20178;-58
2020/12/11 08:31:21;;;;;;;30.50;13.10;;;0.90;99.90;;;;;;5097363;28;20192;-59
2020/12/11 08:33:48;;;;;;;32.97;14.25;;;0.90;99.90;;;;;;5096725;28;20164;-58
2020/12/11 08:36:24;;;;;;;36.05;14.13;;;0.90;99.90;;;;;;5097174;28;20262;-59
2020/12/11 08:39:37;;;;;;;34.72;14.10;;;0.90;99.90;;;;;;5097324;28;20175;-59
2020/12/11 08:44:41;;;;;;;34.70;14.48;;;1.00;99.90;;;;;;5055171;28;20192;-60
2020/12/11 08:50:18;;;;;;;31.38;12.90;;;1.00;99.90;;;;;;5055007;28;20235;-59
2020/12/11 08:52:44;;;;;;;29.85;13.52;;;1.10;99.90;;;;;;5055265;28;20218;-58
2020/12/11 08:55:09;;;;;;;32.78;14.13;;;1.10;99.90;;;;;;5054873;28;20185;-59
2020/12/11 08:57:35;;;;;;;35.95;14.77;;;1.10;99.90;;;;;;5055397;28;20272;-59
2020/12/11 09:00:00;;;;;;;32.55;13.68;;;1.10;99.90;;;;;;5054801;28;20560;-59
2020/12/11 09:02:26;;;;;;;34.00;14.27;;;1.10;99.90;;;;;;5055050;28;20173;-59
2020/12/11 09:04:52;;;;;;;33.13;14.27;;;1.10;99.90;;;;;;5054746;28;20181;-59
2020/12/11 09:07:18;;;;;;;32.38;13.77;;;1.10;99.90;;;;;;5054506;28;20173;-59
2020/12/11 09:09:44;;;;;;;31.20;13.80;;;1.00;99.90;;;;;;5054488;28;20160;-59
2020/12/11 09:12:09;;;;;;;34.92;13.93;;;1.00;99.90;;;;;;5054905;28;20177;-59
2020/12/11 09:14:35;;;;;;;29.58;13.10;;;1.00;99.90;;;;;;5054664;28;20179;-59
2020/12/11 09:17:01;;;;;;;35.78;14.32;;;1.00;99.90;;;;;;5050285;28;20713;-59
2020/12/11 09:19:26;;;;;;;36.38;13.75;;;1.00;99.90;;;;;;5096617;28;20171;-59
2020/12/11 09:21:52;;;;;;;31.90;14.48;;;1.00;99.90;;;;;;5096111;28;20178;-59
2020/12/11 09:24:18;;;;;;;33.47;13.50;;;1.00;99.90;;;;;;5096088;28;20223;-59
2020/12/11 09:26:43;;;;;;;32.38;14.30;;;1.00;99.90;;;;;;5096151;28;20202;-59
2020/12/11 09:29:15;;;;;;;31.75;13.98;;;1.00;99.90;;;;;;5096470;28;20596;-60
2020/12/11 09:31:44;;;;;;;34.15;14.25;;;1.00;99.90;;;;;;5096262;28;20155;-59
2020/12/11 09:34:09;;;;;;;33.78;15.65;;;1.10;99.90;;;;;;5096370;28;20558;-59
2020/12/11 09:36:35;;;;;;;38.97;15.43;;;1.00;99.90;;;;;;5096052;28;20167;-59
2020/12/11 09:39:00;;;;;;;34.67;15.63;;;1.00;99.90;;;;;;5095971;28;20171;-59
2020/12/11 09:41:29;;;;;;;41.10;14.80;;;1.00;99.90;;;;;;5095863;28;20195;-59
2020/12/11 09:46:40;;;;;;;33.90;14.95;;;1.00;99.90;;;;;;5095804;28;20607;-59
2020/12/11 09:49:11;;;;;;;31.45;14.20;;;1.10;99.90;;;;;;5096098;28;20572;-60
2020/12/11 09:54:31;;;;;;;34.03;14.02;;;1.10;99.90;;;;;;5095763;28;20228;-59
2020/12/11 09:56:56;;;;;;;32.42;14.77;;;1.20;99.90;;;;;;5095921;28;20144;-59
2020/12/11 09:59:34;;;;;;;35.53;16.00;;;1.20;99.90;;;;;;5095779;28;20172;-59
2020/12/11 10:04:28;;;;;;;36.80;15.73;;;1.20;99.90;;;;;;5095591;28;20572;-59
2020/12/11 10:06:54;;;;;;;39.75;16.05;;;1.20;99.90;;;;;;5095453;28;20159;-59
2020/12/11 10:09:19;;;;;;;35.53;15.50;;;1.20;99.90;;;;;;5094756;28;20168;-59
2020/12/11 10:11:45;;;;;;;36.30;14.07;;;1.20;99.90;;;;;;5095962;28;20168;-59
2020/12/11 10:16:52;;;;;;;36.33;15.32;;;1.10;99.90;;;;;;5095181;28;20484;-59
2020/12/11 10:19:18;;;;;;;39.50;16.55;;;1.10;99.90;;;;;;5095209;28;20163;-60
2020/12/11 10:21:50;;;;;;;37.30;14.90;;;1.10;99.90;;;;;;5095375;28;20186;-59
2020/12/11 10:24:16;;;;;;;31.00;15.13;;;1.10;99.90;;;;;;5095402;28;20191;-59
2020/12/11 10:26:42;;;;;;;36.60;14.93;;;1.10;99.90;;;;;;5095109;28;20178;-59
2020/12/11 10:29:08;;;;;;;36.25;14.95;;;1.10;99.90;;;;;;5095356;28;20496;-59
2020/12/11 10:31:34;;;;;;;30.98;13.25;;;1.10;99.90;;;;;;5095173;28;20172;-59
2020/12/11 10:34:00;;;;;;;33.40;13.77;;;1.10;99.90;;;;;;5095233;28;20163;-61
2020/12/11 10:36:30;;;;;;;41.00;15.00;;;1.10;99.90;;;;;;5095127;28;20202;-60
2020/12/11 10:38:55;;;;;;;37.28;15.35;;;1.20;99.90;;;;;;5095160;28;20164;-60
2020/12/11 10:41:22;;;;;;;34.40;14.63;;;1.20;99.90;;;;;;5094766;28;20172;-60
2020/12/11 10:43:48;;;;;;;36.67;14.13;;;1.20;99.90;;;;;;5095093;28;20207;-59
2020/12/11 10:46:13;;;;;;;33.95;14.70;;;1.20;99.90;;;;;;5094765;28;20187;-59
2020/12/11 10:48:39;;;;;;;35.83;15.02;;;1.20;99.90;;;;;;5095082;28;20199;-60
2020/12/11 10:51:04;;;;;;;34.70;14.50;;;1.20;99.90;;;;;;5094946;28;20171;-59
2020/12/11 10:53:30;;;;;;;35.15;14.20;;;1.10;99.90;;;;;;5095029;28;20167;-60
2020/12/11 10:55:55;;;;;;;36.60;14.98;;;1.10;99.90;;;;;;5095674;28;20190;-60
2020/12/11 10:58:21;;;;;;;36.08;14.98;;;1.10;99.90;;;;;;5098995;28;20203;-59
2020/12/11 11:00:46;;;;;;;36.45;14.45;;;1.10;99.90;;;;;;5100406;28;20177;-59
2020/12/11 11:03:12;;;;;;;37.42;14.93;;;1.00;99.90;;;;;;5102275;28;20278;-59
2020/12/11 11:05:38;;;;;;;34.05;13.80;;;1.10;99.90;;;;;;5100021;28;20219;-59
2020/12/11 11:08:04;;;;;;;38.50;15.27;;;1.10;99.90;;;;;;5099965;28;20175;-59
2020/12/11 11:10:34;;;;;;;34.50;13.55;;;1.10;99.90;;;;;;5099623;28;20173;-59
2020/12/11 11:13:18;;;;;;;36.65;14.38;;;1.00;99.90;;;;;;5099583;28;20172;-59
2020/12/11 11:15:47;;;;;;;37.70;13.85;;;1.00;99.90;;;;;;5106317;28;20155;-59
2020/12/11 11:18:35;;;;;;;35.03;13.95;;;1.00;99.90;;;;;;5100606;28;20198;-59
2020/12/11 11:24:10;;;;;;;31.98;13.15;;;1.10;99.90;;;;;;5098554;28;20194;-59
2020/12/11 11:27:04;;;;;;;34.78;13.10;;;1.10;99.90;;;;;;5098562;28;20209;-59
2020/12/11 11:29:30;;;;;;;35.13;13.13;;;1.20;99.90;;;;;;5098626;28;20152;-59
2020/12/11 11:31:55;;;;;;;32.40;13.38;;;1.20;99.90;;;;;;5098459;28;20216;-59
2020/12/11 11:34:21;;;;;;;28.92;12.15;;;1.20;99.90;;;;;;5098310;28;20220;-59
2020/12/11 11:36:53;;;;;;;31.05;12.98;;;1.20;99.90;;;;;;5098231;28;20163;-59
2020/12/11 11:39:19;;;;;;;30.05;11.77;;;1.20;99.90;;;;;;5098092;28;20500;-59
2020/12/11 11:41:47;;;;;;;31.08;14.02;;;1.20;99.90;;;;;;5098095;28;20160;-59
2020/12/11 11:44:36;;;;;;;33.78;13.68;;;1.20;99.90;;;;;;5098097;28;20225;-59
2020/12/11 11:47:02;;;;;;;29.70;12.40;;;1.30;99.90;;;;;;5097858;28;20176;-59
2020/12/11 11:49:36;;;;;;;33.65;13.27;;;1.30;99.90;;;;;;5098619;28;20174;-59
2020/12/11 11:52:30;;;;;;;29.83;13.00;;;1.30;99.90;;;;;;5097948;28;20156;-59
2020/12/11 11:54:47;;;;;;;29.40;12.93;;;1.40;99.90;;;;;;5097502;28;20510;-59
2020/12/11 11:57:12;;;;;;;30.33;13.00;;;1.40;99.90;;;;;;5098087;28;20180;-60
2020/12/11 11:59:38;;;;;;;31.15;13.40;;;1.40;99.90;;;;;;5098172;28;20163;-59
2020/12/11 12:02:03;;;;;;;37.08;13.18;;;1.50;99.90;;;;;;5098097;28;20155;-60
2020/12/11 12:04:29;;;;;;;27.05;12.32;;;1.50;99.90;;;;;;5097994;28;20191;-59
2020/12/11 12:06:55;;;;;;;27.98;12.75;;;1.50;99.90;;;;;;5096766;28;20174;-59
2020/12/11 12:09:21;;;;;;;25.73;11.90;;;1.50;99.90;;;;;;5097470;28;20596;-59
2020/12/11 12:11:46;;;;;;;34.67;13.23;;;1.50;99.90;;;;;;5097644;28;20182;-60
2020/12/11 12:14:12;;;;;;;27.70;12.48;;;1.40;99.90;;;;;;5079753;28;20171;-60
2020/12/11 12:16:39;;;;;;;26.23;12.75;;;1.40;99.90;;;;;;5098094;28;20474;-59
2020/12/11 12:19:07;;;;;;;27.25;12.07;;;1.50;99.90;;;;;;5097686;28;20232;-59
2020/12/11 12:29:29;;;;;;;30.40;12.77;;;1.30;99.90;;;;;;5097377;28;20158;-59
2020/12/11 12:31:58;;;;;;;27.45;13.00;;;1.30;99.90;;;;;;5097174;28;20163;-59
2020/12/11 12:37:23;;;;;;;27.98;12.57;;;1.30;99.90;;;;;;5097248;28;20244;-59
2020/12/11 12:42:46;;;;;;;27.55;12.65;;;1.40;99.90;;;;;;5082060;28;20168;-59
2020/12/11 12:45:11;;;;;;;29.15;13.30;;;1.50;99.90;;;;;;5096430;28;20196;-60
2020/12/11 12:47:38;;;;;;;27.92;12.13;;;1.40;99.90;;;;;;5096103;28;20172;-60
2020/12/11 12:50:05;;;;;;;31.88;14.23;;;1.40;99.90;;;;;;5096351;28;20671;-59
2020/12/11 12:52:30;;;;;;;30.23;13.20;;;1.40;99.90;;;;;;5096526;28;20168;-60
2020/12/11 12:54:56;;;;;;;34.85;14.32;;;1.40;99.90;;;;;;5096880;28;20481;-59
2020/12/11 12:57:30;;;;;;;32.13;13.77;;;1.40;99.90;;;;;;5096370;28;20618;-59
2020/12/11 13:00:06;;;;;;;29.88;12.77;;;1.40;99.90;;;;;;5095935;28;20231;-60
2020/12/11 13:02:59;;;;;;;30.00;13.10;;;1.40;99.90;;;;;;5094775;28;20163;-59
2020/12/11 13:05:25;;;;;;;29.13;13.27;;;1.40;99.90;;;;;;5094892;28;20242;-59
2020/12/11 13:07:50;;;;;;;32.75;13.68;;;1.40;99.90;;;;;;5094693;28;20235;-59
2020/12/11 13:10:16;;;;;;;29.30;12.40;;;1.40;99.90;;;;;;5094655;28;20171;-59
2020/12/11 13:12:43;;;;;;;30.75;13.20;;;1.30;99.90;;;;;;5094156;28;20220;-59